Time;durP1;ratioP1;P1;durP2;ratioP2;P2;SDS_P1;SDS_P2;PMS_P1;PMS_P2;Temp;Humidity;BMP_temperature;BMP_pressure;BME280_temperature;BME280_humidity;BME280_pressure;Samples;Min_cycle;Max_cycle;Signal;HPM_P1;HPM_P2
2022/07/04 00:00:38;;;;;;;7.03;0.50;;;;;;;12.40;79.31;101031.72;5039747;28;20036;-75
2022/07/04 00:03:05;;;;;;;2.38;0.40;;;;;;;12.43;79.42;101034.06;5056237;28;20485;-81
2022/07/04 00:05:31;;;;;;;3.08;0.38;;;;;;;12.42;79.97;101029.75;5071700;28;20040;-81
2022/07/04 00:07:57;;;;;;;2.65;0.50;;;;;;;12.41;79.75;101017.47;5055050;28;20086;-82
2022/07/04 00:10:23;;;;;;;3.80;0.60;;;;;;;12.36;80.36;101007.28;5054023;28;20554;-82
2022/07/04 00:12:49;;;;;;;3.63;0.63;;;;;;;12.32;80.33;101011.22;5053605;28;20024;-81
2022/07/04 00:15:15;;;;;;;3.75;0.43;;;;;;;12.28;80.68;101012.47;5056549;28;20425;-82
2022/07/04 00:17:41;;;;;;;2.85;0.73;;;;;;;12.22;80.83;101013.03;5070087;28;20033;-82
2022/07/04 00:20:08;;;;;;;1.02;0.38;;;;;;;12.23;81.10;101017.38;5069539;28;20145;-82
2022/07/04 00:22:35;;;;;;;2.28;0.47;;;;;;;12.22;81.42;101019.16;5073395;28;20021;-82
2022/07/04 00:25:01;;;;;;;1.48;0.20;;;;;;;12.18;81.78;101015.13;5050309;28;20101;-82
2022/07/04 00:27:27;;;;;;;1.63;0.30;;;;;;;12.21;81.94;101020.16;5057025;28;20150;-82
2022/07/04 00:29:53;;;;;;;2.53;0.40;;;;;;;12.22;81.86;101013.88;5055159;28;20044;-81
2022/07/04 00:32:19;;;;;;;0.32;0.20;;;;;;;12.23;81.71;101018.19;5067344;28;20482;-76
2022/07/04 00:34:45;;;;;;;2.90;0.30;;;;;;;12.23;82.33;101009.41;5039003;28;20036;-76
2022/07/04 00:37:11;;;;;;;1.77;0.30;;;;;;;12.24;81.73;101013.72;5066671;28;20562;-76
2022/07/04 00:39:37;;;;;;;2.22;0.30;;;;;;;12.25;82.02;101013.59;5056666;28;20515;-76
2022/07/04 00:42:04;;;;;;;2.17;0.40;;;;;;;12.33;81.94;101017.31;5072307;28;20032;-82
2022/07/04 00:44:31;;;;;;;5.60;0.35;;;;;;;12.36;81.53;101020.53;5070909;28;20040;-82
2022/07/04 00:46:57;;;;;;;8.63;0.50;;;;;;;12.35;81.52;101026.00;5070270;28;20036;-76
2022/07/04 00:49:23;;;;;;;3.28;0.40;;;;;;;12.36;81.72;101014.44;5073807;28;20484;-76
2022/07/04 00:51:49;;;;;;;11.02;1.85;;;;;;;12.36;81.43;101022.38;5054896;28;20098;-81
2022/07/04 00:54:18;;;;;;;0.77;0.30;;;;;;;12.40;81.48;101023.75;5037294;28;20030;-81
2022/07/04 00:56:45;;;;;;;3.08;0.30;;;;;;;12.45;81.55;101016.22;5055144;28;20051;-82
2022/07/04 00:59:11;;;;;;;3.58;0.38;;;;;;;12.48;81.48;101020.38;5067989;28;20050;-82
2022/07/04 01:01:38;;;;;;;2.15;0.35;;;;;;;12.53;81.35;101015.50;5069369;28;20021;-81
2022/07/04 01:04:05;;;;;;;1.15;0.30;;;;;;;12.57;80.94;101019.53;5058939;28;20032;-81
2022/07/04 01:06:32;;;;;;;2.42;0.20;;;;;;;12.56;81.16;101017.03;5039910;28;20085;-76
2022/07/04 01:09:00;;;;;;;3.30;0.40;;;;;;;12.54;81.20;101011.88;5049204;28;20032;-76
2022/07/04 01:11:26;;;;;;;3.35;0.30;;;;;;;12.53;81.22;101005.72;5067895;28;20032;-75
2022/07/04 01:13:54;;;;;;;3.70;0.30;;;;;;;12.54;81.20;101009.22;5064598;28;20043;-75
2022/07/04 01:16:20;;;;;;;1.13;0.22;;;;;;;12.49;81.44;101009.63;5065811;28;20116;-82
2022/07/04 01:18:46;;;;;;;1.48;0.32;;;;;;;12.45;81.92;101002.97;5065149;28;20491;-81
2022/07/04 01:21:12;;;;;;;2.35;0.30;;;;;;;12.46;81.77;100995.81;5065001;28;20508;-76
2022/07/04 01:23:39;;;;;;;1.55;0.30;;;;;;;12.45;82.10;100999.47;5064260;28;20041;-75
2022/07/04 01:26:06;;;;;;;3.30;0.38;;;;;;;12.44;81.82;101000.47;5043671;28;20040;-81
2022/07/04 01:28:32;;;;;;;2.25;0.40;;;;;;;12.46;82.26;101007.28;5042056;28;20041;-82
2022/07/04 01:30:58;;;;;;;1.77;0.32;;;;;;;12.49;81.79;101011.44;5059637;28;20032;-81
2022/07/04 01:33:24;;;;;;;2.20;0.40;;;;;;;12.49;81.87;101000.84;5043719;28;20039;-81
2022/07/04 01:35:49;;;;;;;2.17;0.50;;;;;;;12.48;81.85;101000.03;5041262;28;20036;-81
2022/07/04 01:38:16;;;;;;;6.57;0.60;;;;;;;12.48;82.23;101009.78;5058710;28;20087;-81
2022/07/04 01:40:42;;;;;;;3.00;0.45;;;;;;;12.52;81.88;101004.06;5058968;28;20052;-81
2022/07/04 01:43:08;;;;;;;1.80;0.38;;;;;;;12.51;82.24;100994.44;5038104;28;20049;-81
2022/07/04 01:45:37;;;;;;;10.10;0.57;;;;;;;12.51;82.05;101004.19;5040096;28;20469;-81
2022/07/04 01:48:07;;;;;;;1.90;0.40;;;;;;;12.51;82.35;100998.91;5038788;28;20043;-81
2022/07/04 01:50:34;;;;;;;2.83;0.40;;;;;;;12.50;82.33;100999.88;5040591;28;20334;-81
2022/07/04 01:53:00;;;;;;;3.38;0.60;;;;;;;12.44;83.01;101006.56;5058234;28;20166;-81
2022/07/04 01:55:27;;;;;;;3.60;0.68;;;;;;;12.41;83.12;101006.84;5045755;28;20037;-82
2022/07/04 01:57:53;;;;;;;4.07;0.60;;;;;;;12.39;83.08;101008.84;5052367;28;20037;-81
2022/07/04 02:03:04;;;;;;;2.28;0.60;;;;;;;12.33;83.45;101004.94;5051133;28;20604;-76
2022/07/04 02:05:30;;;;;;;1.35;0.57;;;;;;;12.31;83.97;101006.88;5044465;28;20040;-76
2022/07/04 02:07:56;;;;;;;4.47;0.60;;;;;;;12.28;84.23;101009.81;5038358;28;20197;-81
2022/07/04 02:10:21;;;;;;;4.72;0.60;;;;;;;12.21;84.37;101006.91;5049274;28;20099;-81
2022/07/04 02:13:02;;;;;;;0.60;0.50;;;;;;;12.22;85.18;101013.03;5049861;28;20029;-81
2022/07/04 02:15:33;;;;;;;1.02;0.32;;;;;;;12.18;85.51;101012.50;5039784;28;20060;-81
2022/07/04 02:18:00;;;;;;;1.85;0.50;;;;;;;12.20;85.59;101007.88;5047185;28;20083;-81
2022/07/04 02:20:26;;;;;;;1.92;0.85;;;;;;;12.19;85.79;101014.16;5047821;28;20036;-81
2022/07/04 02:22:52;;;;;;;1.77;0.60;;;;;;;12.20;86.05;101004.41;5039806;28;20029;-81
2022/07/04 02:25:18;;;;;;;2.90;0.50;;;;;;;12.22;85.92;101007.72;5050478;28;20036;-81
2022/07/04 02:27:44;;;;;;;2.22;0.50;;;;;;;12.23;86.04;101004.94;5048848;28;20504;-81
2022/07/04 02:30:11;;;;;;;4.22;0.68;;;;;;;12.27;86.12;100998.38;5064302;28;20092;-81
2022/07/04 02:32:37;;;;;;;2.60;0.50;;;;;;;12.28;86.43;100997.41;5045405;28;20032;-81
2022/07/04 02:35:03;;;;;;;3.78;0.65;;;;;;;12.28;86.16;100991.25;5038157;28;20465;-81
2022/07/04 02:37:29;;;;;;;4.65;0.77;;;;;;;12.32;86.19;100994.47;5030710;28;20046;-81
2022/07/04 02:39:55;;;;;;;1.13;0.43;;;;;;;12.35;85.98;100992.38;5047180;28;20037;-81
2022/07/04 02:42:21;;;;;;;3.50;0.60;;;;;;;12.35;85.95;100996.81;5048700;28;20526;-81
2022/07/04 02:44:47;;;;;;;3.80;0.75;;;;;;;12.35;86.30;100991.53;5050892;28;20397;-81
2022/07/04 02:47:14;;;;;;;6.32;1.05;;;;;;;12.33;86.16;100993.47;5049833;28;20040;-81
2022/07/04 02:49:40;;;;;;;3.08;0.50;;;;;;;12.32;86.64;100992.66;5047848;28;20032;-81
2022/07/04 02:52:06;;;;;;;2.55;0.77;;;;;;;12.32;86.21;100990.00;5038630;28;20036;-81
2022/07/04 02:54:32;;;;;;;2.47;0.60;;;;;;;12.32;86.49;101002.41;5049338;28;20082;-81
2022/07/04 02:56:57;;;;;;;2.33;1.45;;;;;;;12.30;86.59;100993.75;5046591;28;20148;-81
2022/07/04 02:59:23;;;;;;;5.97;0.73;;;;;;;12.26;86.78;100994.03;5046279;28;20035;-81
2022/07/04 03:01:49;;;;;;;3.40;0.60;;;;;;;12.29;86.54;100992.94;5065981;28;20162;-81
2022/07/04 03:04:15;;;;;;;1.98;0.77;;;;;;;12.30;86.72;101001.72;5061693;28;20367;-81
2022/07/04 03:06:42;;;;;;;3.13;0.90;;;;;;;12.27;86.79;100995.75;5043523;28;20033;-81
2022/07/04 03:09:09;;;;;;;1.52;0.60;;;;;;;12.28;87.30;100991.25;5045846;28;20033;-81
2022/07/04 03:11:35;;;;;;;13.77;0.85;;;;;;;12.28;87.05;100991.25;5049558;28;20037;-81
2022/07/04 03:14:01;;;;;;;5.38;1.13;;;;;;;12.29;86.98;100974.38;5040648;28;20617;-81
2022/07/04 03:16:26;;;;;;;3.80;0.80;;;;;;;12.27;86.88;100976.34;5051040;28;20041;-81
2022/07/04 03:18:52;;;;;;;2.75;0.80;;;;;;;12.26;87.29;100978.16;5046064;28;20036;-81
2022/07/04 03:21:18;;;;;;;2.85;0.80;;;;;;;12.26;87.33;100975.50;5048537;28;20032;-81
2022/07/04 03:23:57;;;;;;;4.80;0.80;;;;;;;12.26;87.51;100983.44;5050958;28;20036;-81
2022/07/04 03:26:31;;;;;;;3.67;1.17;;;;;;;12.25;87.64;100981.78;5047938;28;20108;-81
2022/07/04 03:28:58;;;;;;;6.63;1.13;;;;;;;12.25;87.50;100976.47;5047272;28;20147;-81
2022/07/04 03:31:25;;;;;;;3.38;0.73;;;;;;;12.23;87.67;100972.31;5049627;28;20036;-81
2022/07/04 03:33:51;;;;;;;5.32;0.90;;;;;;;12.26;87.80;100974.69;5048873;28;20115;-81
2022/07/04 03:36:18;;;;;;;3.85;1.00;;;;;;;12.26;87.59;100970.19;5045258;28;20025;-81
2022/07/04 03:38:44;;;;;;;5.80;0.90;;;;;;;12.23;87.58;100973.13;5049068;28;20607;-81
2022/07/04 03:41:10;;;;;;;3.20;0.60;;;;;;;12.23;87.45;100974.97;5045212;28;20030;-81
2022/07/04 03:43:36;;;;;;;2.88;0.85;;;;;;;12.23;87.25;100975.78;5042572;28;20098;-81
2022/07/04 03:46:02;;;;;;;3.60;0.90;;;;;;;12.23;87.25;100972.31;5042824;28;20447;-81
2022/07/04 03:48:28;;;;;;;5.05;1.02;;;;;;;12.26;87.00;100977.31;5048327;28;20037;-81
2022/07/04 03:50:53;;;;;;;6.15;0.93;;;;;;;12.26;86.99;100982.63;5045960;28;20048;-81
2022/07/04 03:53:19;;;;;;;3.20;0.63;;;;;;;12.26;86.81;100983.44;5061647;28;20033;-76
2022/07/04 03:55:46;;;;;;;6.22;0.82;;;;;;;12.27;87.35;100977.19;5046839;28;20021;-76
2022/07/04 03:58:12;;;;;;;7.25;1.10;;;;;;;12.26;86.90;100977.31;5029850;28;20063;-81
2022/07/04 04:00:38;;;;;;;7.72;0.93;;;;;;;12.27;86.92;100977.19;5064030;28;20494;-81
2022/07/04 04:05:26;;;;;;;1.75;0.80;;;;;;;12.28;87.04;100975.34;5045883;28;20033;-81
2022/07/04 04:05:49;;;;;;;2.40;0.50;;;;;;;12.25;87.04;100981.78;5049481;28;20072;-80
2022/07/04 04:08:15;;;;;;;4.30;0.85;;;;;;;12.26;86.87;100980.78;5052370;28;20437;-81
2022/07/04 04:10:42;;;;;;;3.63;0.77;;;;;;;12.28;86.90;100978.00;5049048;28;20043;-81
2022/07/04 04:13:08;;;;;;;1.65;0.60;;;;;;;12.31;86.90;100982.19;5054064;28;20040;-81
2022/07/04 04:15:34;;;;;;;2.78;1.00;;;;;;;12.30;86.74;100978.69;5047168;28;20397;-81
2022/07/04 04:18:00;;;;;;;5.93;0.90;;;;;;;12.33;86.70;100982.88;5050710;28;20548;-81
2022/07/04 04:20:25;;;;;;;2.83;1.10;;;;;;;12.35;86.54;100986.22;5037367;28;20060;-81
2022/07/04 04:22:51;;;;;;;7.63;1.67;;;;;;;12.35;86.66;100991.53;5055103;28;20112;-81
2022/07/04 04:25:18;;;;;;;2.50;0.80;;;;;;;12.35;86.41;100980.94;5053417;28;20032;-81
2022/07/04 04:27:43;;;;;;;4.28;0.88;;;;;;;12.36;86.11;100982.63;5065843;28;20052;-82
2022/07/04 04:30:09;;;;;;;4.65;1.00;;;;;;;12.36;86.05;100983.44;5055224;28;20065;-81
2022/07/04 04:32:35;;;;;;;2.90;0.80;;;;;;;12.34;85.96;100980.06;5052643;28;20032;-81
2022/07/04 04:35:01;;;;;;;5.10;0.88;;;;;;;12.33;85.97;100985.53;5071056;28;20044;-81
2022/07/04 04:37:27;;;;;;;4.95;1.00;;;;;;;12.30;85.73;100976.06;5067989;28;20116;-81
2022/07/04 04:39:53;;;;;;;4.18;0.90;;;;;;;12.28;86.00;100981.50;5054958;28;20370;-81
2022/07/04 04:42:18;;;;;;;4.05;0.77;;;;;;;12.23;85.58;100982.91;5055535;28;20086;-81
2022/07/04 04:44:44;;;;;;;2.60;0.93;;;;;;;12.23;85.54;100991.69;5056381;28;20434;-81
2022/07/04 04:47:10;;;;;;;7.20;1.30;;;;;;;12.25;85.78;100994.19;5054421;28;20029;-81
2022/07/04 04:49:36;;;;;;;6.07;0.90;;;;;;;12.30;85.52;100994.59;5074766;28;20024;-81
2022/07/04 04:52:02;;;;;;;6.03;1.35;;;;;;;12.35;85.23;101000.31;5047489;28;20511;-76
2022/07/04 04:54:28;;;;;;;5.20;1.17;;;;;;;12.36;85.00;101002.00;5056267;28;20461;-76
2022/07/04 04:56:54;;;;;;;3.58;1.02;;;;;;;12.35;84.72;101002.13;5068722;28;20037;-81
2022/07/04 04:59:20;;;;;;;4.10;0.95;;;;;;;12.36;84.67;100999.34;5073587;28;20582;-81
2022/07/04 05:01:46;;;;;;;3.00;1.15;;;;;;;12.36;84.44;101001.16;5073896;28;20396;-81
2022/07/04 05:04:14;;;;;;;3.50;1.40;;;;;;;12.34;84.54;100997.81;5067265;28;20040;-81
2022/07/04 05:06:40;;;;;;;6.95;1.20;;;;;;;12.30;84.74;101001.72;5067455;28;20473;-81
2022/07/04 05:09:06;;;;;;;6.28;1.08;;;;;;;12.26;84.68;101003.84;5067770;28;20039;-81
2022/07/04 05:11:32;;;;;;;2.63;1.10;;;;;;;12.24;84.98;101014.56;5049489;28;20051;-81
2022/07/04 05:13:58;;;;;;;8.77;1.40;;;;;;;12.23;85.19;101012.06;5073335;28;20064;-81
2022/07/04 05:16:23;;;;;;;6.00;1.45;;;;;;;12.24;85.07;101013.72;5053277;28;20036;-82
2022/07/04 05:18:49;;;;;;;7.97;1.10;;;;;;;12.26;84.90;101011.78;5070146;28;20058;-81
2022/07/04 05:21:15;;;;;;;5.20;1.20;;;;;;;12.31;85.17;101011.34;5073096;28;20078;-81
2022/07/04 05:23:41;;;;;;;6.10;1.42;;;;;;;12.35;85.28;101013.59;5050853;28;20496;-81
2022/07/04 05:26:06;;;;;;;3.00;1.05;;;;;;;12.38;85.02;101009.78;5052998;28;20040;-81
2022/07/04 05:28:32;;;;;;;2.90;1.00;;;;;;;12.40;85.13;100999.91;5066946;28;20043;-81
2022/07/04 05:30:58;;;;;;;7.32;1.33;;;;;;;12.44;84.92;101005.75;5059405;28;20559;-81
2022/07/04 05:33:24;;;;;;;3.78;1.30;;;;;;;12.43;85.43;101009.38;5069259;28;20032;-81
2022/07/04 05:35:50;;;;;;;3.35;0.95;;;;;;;12.38;85.31;101018.59;5053782;28;20028;-81
2022/07/04 05:38:16;;;;;;;2.97;1.08;;;;;;;12.40;85.63;101023.75;5051573;28;20040;-81
2022/07/04 05:40:41;;;;;;;5.65;1.10;;;;;;;12.39;85.68;101020.25;5063299;28;20035;-81
2022/07/04 05:43:07;;;;;;;4.50;1.08;;;;;;;12.40;86.00;101029.91;5071595;28;20065;-81
2022/07/04 05:45:33;;;;;;;5.03;1.05;;;;;;;12.44;86.09;101026.97;5051838;28;20131;-81
2022/07/04 05:47:59;;;;;;;2.60;0.90;;;;;;;12.44;86.47;101025.13;5065604;28;20033;-81
2022/07/04 05:50:24;;;;;;;4.05;0.98;;;;;;;12.51;86.46;101028.06;5047908;28;20665;-81
2022/07/04 05:52:50;;;;;;;5.05;0.93;;;;;;;12.51;86.19;101036.84;4989787;28;20659;-81
2022/07/04 05:55:16;;;;;;;4.80;1.25;;;;;;;12.52;86.62;101027.06;5062325;28;20476;-81
2022/07/04 05:57:42;;;;;;;7.85;1.20;;;;;;;12.52;86.70;101032.38;5062332;28;20039;-81
2022/07/04 06:00:08;;;;;;;7.20;1.13;;;;;;;12.50;86.96;101026.41;5068447;28;20060;-81
2022/07/04 06:02:36;;;;;;;8.98;1.50;;;;;;;12.47;87.05;101016.91;5054799;28;20032;-81
2022/07/04 06:05:02;;;;;;;5.50;0.90;;;;;;;12.49;87.28;101025.56;5060573;28;20037;-81
2022/07/04 06:07:28;;;;;;;3.78;0.93;;;;;;;12.52;87.50;101024.41;5071247;28;20283;-81
2022/07/04 06:09:54;;;;;;;3.85;0.70;;;;;;;12.58;87.54;101023.84;5052346;28;20541;-81
2022/07/04 06:12:20;;;;;;;3.30;0.77;;;;;;;12.62;87.60;101024.41;5071533;28;20021;-81
2022/07/04 06:14:45;;;;;;;4.63;0.80;;;;;;;12.59;87.21;101030.84;5071402;28;20063;-81
2022/07/04 06:17:11;;;;;;;2.38;0.40;;;;;;;12.61;87.13;101028.03;5071302;28;20036;-81
2022/07/04 06:19:37;;;;;;;2.35;0.75;;;;;;;12.62;87.33;101019.09;5070276;28;20341;-81
2022/07/04 06:22:03;;;;;;;1.55;0.50;;;;;;;12.57;87.30;101022.19;5062826;28;20476;-81
2022/07/04 06:24:29;;;;;;;4.53;0.60;;;;;;;12.56;87.82;101023.16;5070959;28;20043;-81
2022/07/04 06:26:55;;;;;;;1.77;0.60;;;;;;;12.58;87.40;101026.50;5071235;28;20041;-81
2022/07/04 06:29:21;;;;;;;2.35;0.60;;;;;;;12.57;87.60;101029.28;5065147;28;20062;-81
2022/07/04 06:31:46;;;;;;;3.25;0.70;;;;;;;12.62;87.67;101030.56;5053643;28;20037;-82
2022/07/04 06:36:56;;;;;;;3.33;0.52;;;;;;;12.72;87.79;101033.19;5066063;28;20040;-81
2022/07/04 06:39:22;;;;;;;5.90;0.70;;;;;;;12.73;87.34;101041.97;5068771;28;20020;-82
2022/07/04 06:41:48;;;;;;;3.58;0.60;;;;;;;12.70;87.56;101039.59;5050179;28;20032;-81
2022/07/04 06:44:14;;;;;;;2.42;0.75;;;;;;;12.72;87.58;101041.16;5050011;28;20382;-81
2022/07/04 06:46:39;;;;;;;2.05;0.47;;;;;;;12.76;88.06;101044.31;5068587;28;20055;-81
2022/07/04 06:49:05;;;;;;;1.70;0.55;;;;;;;12.74;88.17;101044.47;5070377;28;20537;-81
2022/07/04 06:51:31;;;;;;;3.17;0.70;;;;;;;12.78;88.15;101047.69;5068998;28;20028;-81
2022/07/04 06:53:57;;;;;;;2.63;0.57;;;;;;;12.78;88.24;101055.63;5048442;28;20478;-81
2022/07/04 06:56:23;;;;;;;2.25;0.60;;;;;;;12.76;88.63;101055.78;5070956;28;20749;-81
2022/07/04 06:58:48;;;;;;;5.00;0.60;;;;;;;12.78;88.91;101059.13;5049444;28;20711;-81
2022/07/04 07:01:16;;;;;;;1.48;0.40;;;;;;;12.77;88.65;101052.13;5063397;28;20392;-81
2022/07/04 07:03:41;;;;;;;0.95;0.28;;;;;;;12.75;88.84;101050.63;5066466;28;20048;-82
2022/07/04 07:06:07;;;;;;;2.22;0.40;;;;;;;12.78;88.77;101055.63;5058666;28;20088;-81
2022/07/04 07:08:33;;;;;;;1.80;0.30;;;;;;;12.77;88.65;101049.47;5068845;28;20047;-82
2022/07/04 07:11:12;;;;;;;1.77;0.30;;;;;;;12.78;88.55;101045.88;5049114;28;20032;-81
2022/07/04 07:13:50;;;;;;;1.83;0.45;;;;;;;12.88;88.40;101053.78;5072113;28;20158;-81
2022/07/04 07:16:17;;;;;;;0.95;0.30;;;;;;;12.86;87.80;101042.50;5054706;28;20094;-81
2022/07/04 07:18:44;;;;;;;1.77;0.20;;;;;;;12.90;87.75;101051.81;5071744;28;20054;-81
2022/07/04 07:21:10;;;;;;;1.70;0.40;;;;;;;12.94;87.35;101063.00;5053241;28;20453;-81
2022/07/04 07:23:40;;;;;;;2.25;0.40;;;;;;;13.00;87.36;101061.56;5070157;28;20107;-81
2022/07/04 07:26:06;;;;;;;0.88;0.20;;;;;;;13.09;87.09;101059.88;5053506;28;20029;-81
2022/07/04 07:28:31;;;;;;;1.10;0.28;;;;;;;13.14;86.81;101058.44;5069440;28;20039;-80
2022/07/04 07:30:57;;;;;;;1.02;0.55;;;;;;;13.08;86.89;101064.34;5053830;28;20056;-80
2022/07/04 07:33:23;;;;;;;0.98;0.38;;;;;;;13.01;86.87;101063.25;5063846;28;20032;-81
2022/07/04 07:35:49;;;;;;;2.65;0.30;;;;;;;12.97;87.66;101059.19;5074940;28;20056;-81
2022/07/04 07:38:15;;;;;;;2.25;0.38;;;;;;;12.90;87.78;101064.25;5057831;28;20040;-81
2022/07/04 07:40:40;;;;;;;2.42;0.30;;;;;;;12.87;87.90;101064.53;5070532;28;20021;-81
2022/07/04 07:43:08;;;;;;;1.88;0.20;;;;;;;12.92;88.29;101066.75;5075034;28;20052;-80
2022/07/04 07:45:33;;;;;;;3.10;0.50;;;;;;;13.03;88.61;101063.94;5073831;28;20035;-81
2022/07/04 07:47:59;;;;;;;2.03;0.40;;;;;;;13.15;88.39;101065.41;5050024;28;20115;-81
2022/07/04 07:50:25;;;;;;;0.52;0.20;;;;;;;13.14;87.98;101071.72;5068933;28;20029;-81
2022/07/04 07:52:51;;;;;;;1.63;0.30;;;;;;;13.16;87.81;101060.94;5066383;28;20033;-81
2022/07/04 07:55:17;;;;;;;1.55;0.22;;;;;;;13.20;87.32;101067.66;5040401;28;20032;-80
2022/07/04 07:57:43;;;;;;;2.25;0.32;;;;;;;13.25;87.11;101078.66;5058984;28;20047;-75
2022/07/04 08:00:09;;;;;;;2.45;0.28;;;;;;;13.31;86.94;101071.94;5056450;28;20029;-75
2022/07/04 08:05:22;;;;;;;4.43;0.20;;;;;;;13.29;85.77;101079.19;5070979;28;20033;-81
2022/07/04 08:07:48;;;;;;;1.85;0.10;;;;;;;13.27;86.11;101076.69;5073012;28;20058;-81
2022/07/04 08:10:14;;;;;;;0.90;0.40;;;;;;;13.27;85.37;101076.69;5066135;28;20028;-81
2022/07/04 08:12:40;;;;;;;2.15;0.40;;;;;;;13.43;85.54;101079.69;5055838;28;20034;-81
2022/07/04 08:15:06;;;;;;;1.25;0.20;;;;;;;13.62;85.18;101082.28;5072725;28;20055;-81
2022/07/04 08:17:32;;;;;;;0.35;0.10;;;;;;;13.75;84.34;101089.91;5066949;28;20029;-81
2022/07/04 08:19:58;;;;;;;0.85;0.30;;;;;;;13.79;82.12;101076.31;5072448;28;20106;-81
2022/07/04 08:22:24;;;;;;;1.75;0.20;;;;;;;13.75;80.76;101092.56;5046782;28;20504;-81
2022/07/04 08:24:50;;;;;;;5.53;0.32;;;;;;;13.75;78.65;101094.38;5054921;28;20456;-80
2022/07/04 08:27:15;;;;;;;4.65;0.30;;;;;;;13.72;78.10;101095.50;5073094;28;20056;-75
2022/07/04 08:29:41;;;;;;;1.70;0.13;;;;;;;13.80;78.21;101101.88;5054334;28;20035;-75
2022/07/04 08:32:07;;;;;;;1.88;0.10;;;;;;;13.81;75.99;101092.94;5044231;28;20083;-81
2022/07/04 08:34:34;;;;;;;2.50;0.30;;;;;;;13.72;75.49;101092.00;5069563;28;20491;-81
2022/07/04 08:37:01;;;;;;;0.40;0.17;;;;;;;13.69;75.24;101095.81;5070032;28;20037;-81
2022/07/04 08:39:27;;;;;;;3.08;0.20;;;;;;;13.71;75.32;101093.81;5070187;28;20662;-81
2022/07/04 08:41:59;;;;;;;6.28;0.40;;;;;;;13.84;74.77;101092.66;5069886;28;20036;-81
2022/07/04 08:44:27;;;;;;;3.72;0.20;;;;;;;13.97;74.43;101090.44;5049448;28;20033;-81
2022/07/04 08:46:54;;;;;;;1.70;0.30;;;;;;;14.05;74.11;101094.19;5072040;28;20071;-81
2022/07/04 08:49:22;;;;;;;1.02;0.17;;;;;;;14.00;73.74;101091.97;5072796;28;20024;-81
2022/07/04 08:51:55;;;;;;;1.65;0.20;;;;;;;13.98;73.74;101094.75;5036199;28;20082;-81
2022/07/04 08:59:56;;;;;;;2.90;0.20;;;;;;;14.00;74.26;101106.09;5054094;28;20032;-81
2022/07/04 09:02:23;;;;;;;3.13;0.28;;;;;;;14.00;73.84;101103.44;5071118;28;20021;-81
2022/07/04 09:04:49;;;;;;;1.02;0.20;;;;;;;14.00;74.01;101102.59;5047050;28;20035;-81
2022/07/04 09:07:17;;;;;;;1.25;0.20;;;;;;;14.02;73.90;101106.78;5072548;28;20032;-81
2022/07/04 09:09:44;;;;;;;0.82;0.20;;;;;;;14.05;73.93;101104.81;5070013;28;20115;-81
2022/07/04 09:12:11;;;;;;;1.55;0.20;;;;;;;13.96;73.75;101109.19;5068390;28;20599;-81
2022/07/04 09:14:38;;;;;;;1.70;0.30;;;;;;;13.91;73.91;101111.47;5069648;28;20028;-81
2022/07/04 09:17:05;;;;;;;1.50;0.20;;;;;;;13.81;74.16;101112.38;5070751;28;20068;-81
2022/07/04 09:19:31;;;;;;;1.23;0.20;;;;;;;13.77;74.69;101119.81;5069034;28;20557;-81
2022/07/04 09:22:04;;;;;;;2.50;0.20;;;;;;;13.69;74.79;101108.25;5067679;28;20028;-80
2022/07/04 09:24:47;;;;;;;9.13;0.40;;;;;;;13.54;75.04;101106.09;5071425;28;20036;-81
2022/07/04 09:27:32;;;;;;;1.35;0.30;;;;;;;13.47;75.18;101116.41;5065509;28;20555;-81
2022/07/04 09:29:59;;;;;;;2.58;0.20;;;;;;;13.42;75.31;101105.41;5069233;28;20037;-81
2022/07/04 09:32:46;;;;;;;1.95;0.30;;;;;;;13.47;75.71;101103.13;5068264;28;20047;-76
2022/07/04 09:35:23;;;;;;;1.85;0.30;;;;;;;13.60;75.16;101104.66;5045875;28;20170;-76
2022/07/04 09:37:54;;;;;;;1.95;0.22;;;;;;;13.70;75.07;101105.44;5053424;28;20032;-81
2022/07/04 09:40:31;;;;;;;0.65;0.17;;;;;;;13.80;73.84;101101.88;5067865;28;20042;-81
2022/07/04 09:43:00;;;;;;;3.08;0.30;;;;;;;13.86;73.85;101099.47;5047492;28;20456;-81
2022/07/04 09:45:28;;;;;;;2.28;0.22;;;;;;;13.98;73.44;101107.25;5045304;28;20446;-81
2022/07/04 09:47:59;;;;;;;3.25;0.30;;;;;;;14.10;72.71;101110.50;5066891;28;20036;-81
2022/07/04 09:50:28;;;;;;;2.28;0.15;;;;;;;14.16;72.70;101114.38;5051532;28;20156;-82
2022/07/04 09:53:00;;;;;;;0.73;0.20;;;;;;;14.27;72.59;101114.97;5034253;28;20561;-81
2022/07/04 09:55:33;;;;;;;2.00;0.30;;;;;;;14.35;72.55;101126.69;5049481;28;20484;-81
2022/07/04 09:58:10;;;;;;;0.63;0.20;;;;;;;14.42;72.33;101119.78;5036759;28;20036;-75
2022/07/04 10:00:42;;;;;;;1.25;0.20;;;;;;;14.47;71.46;101112.19;5062776;28;20086;-75
2022/07/04 10:03:31;;;;;;;2.85;0.65;;;;;;;14.56;71.50;101122.84;5068949;28;20056;-81
2022/07/04 10:06:11;;;;;;;5.20;1.20;;;;;;;14.57;71.21;101116.56;5071743;28;20044;-80
2022/07/04 10:08:39;;;;;;;6.72;0.25;;;;;;;14.47;71.62;101125.47;5065297;28;20037;-81
2022/07/04 10:11:06;;;;;;;2.53;0.13;;;;;;;14.39;71.05;101133.38;5060850;28;20037;-81
2022/07/04 10:13:32;;;;;;;1.80;0.40;;;;;;;14.29;70.80;101119.31;5066101;28;20408;-81
2022/07/04 10:15:58;;;;;;;0.30;0.10;;;;;;;14.22;70.21;101130.56;5033358;28;20044;-81
2022/07/04 10:18:25;;;;;;;0.80;0.10;;;;;;;14.21;70.14;101123.56;5037148;28;20534;-81
2022/07/04 10:20:53;;;;;;;6.93;0.30;;;;;;;14.28;69.94;101131.78;5053468;28;20424;-81
2022/07/04 10:23:21;;;;;;;1.92;0.10;;;;;;;14.30;69.51;101124.47;5049395;28;20024;-81
2022/07/04 10:25:48;;;;;;;2.35;0.35;;;;;;;14.34;69.24;101138.31;5070154;28;20028;-81
2022/07/04 10:28:15;;;;;;;4.85;0.30;;;;;;;14.43;69.16;101136.56;5067653;28;20032;-81
2022/07/04 10:30:42;;;;;;;2.83;0.20;;;;;;;14.46;69.05;101137.09;5070940;28;20524;-81
2022/07/04 10:33:10;;;;;;;3.05;0.38;;;;;;;14.55;69.29;101138.00;5052949;28;20488;-76
2022/07/04 10:35:48;;;;;;;0.47;0.13;;;;;;;14.64;68.82;101139.75;5065005;28;20396;-75
2022/07/04 10:38:16;;;;;;;5.82;0.40;;;;;;;14.56;68.79;101141.47;5070992;28;20036;-81
2022/07/04 10:40:45;;;;;;;4.75;0.50;;;;;;;14.50;69.14;101143.78;5070444;28;20070;-81
2022/07/04 10:43:41;;;;;;;1.45;0.30;;;;;;;14.54;68.47;101144.28;5051061;28;20141;-81
2022/07/04 10:46:13;;;;;;;1.90;0.30;;;;;;;14.57;69.53;101157.28;5066187;28;20384;-81
2022/07/04 10:48:49;;;;;;;1.48;0.40;;;;;;;14.60;68.48;101166.81;5063199;28;20037;-81
2022/07/04 10:51:15;;;;;;;;;;;;;;;14.35;67.66;101158.63;5052916;28;20044;-81
2022/07/04 10:54:04;;;;;;;4.97;0.77;;;;;;;14.44;68.84;101163.03;5051850;28;20356;-81
2022/07/04 10:56:30;;;;;;;5.05;1.05;;;;;;;14.54;68.57;101162.09;5070702;28;20436;-76
2022/07/04 10:58:59;;;;;;;6.65;0.85;;;;;;;14.66;68.03;101166.19;5049846;28;20040;-76
2022/07/04 11:01:25;;;;;;;3.47;0.50;;;;;;;14.79;67.27;101164.97;5049638;28;20036;-76
2022/07/04 11:03:52;;;;;;;6.07;0.52;;;;;;;14.94;66.66;101163.44;5068547;28;20040;-75
2022/07/04 11:06:34;;;;;;;4.50;0.50;;;;;;;15.00;65.17;101165.47;5067822;28;20028;-81
2022/07/04 11:09:15;;;;;;;4.80;0.85;;;;;;;15.04;64.33;101170.47;5068157;28;20029;-81
2022/07/04 11:12:00;;;;;;;2.03;0.60;;;;;;;15.10;63.61;101172.50;5051256;28;20043;-76
2022/07/04 11:14:35;;;;;;;2.33;0.65;;;;;;;15.17;62.65;101162.94;5063896;28;20081;-75
2022/07/04 11:17:02;;;;;;;3.22;0.82;;;;;;;15.30;63.19;101175.81;5065289;28;20040;-81
2022/07/04 11:19:28;;;;;;;1.48;0.40;;;;;;;15.41;62.34;101171.22;5042615;28;20028;-81
2022/07/04 11:21:58;;;;;;;3.13;0.52;;;;;;;15.47;61.82;101171.41;5043615;28;20031;-81
2022/07/04 11:24:25;;;;;;;3.55;0.95;;;;;;;15.43;62.01;101169.22;5040965;28;20078;-81
2022/07/04 11:26:51;;;;;;;6.32;1.30;;;;;;;15.31;62.01;101185.47;5061225;28;20043;-81
2022/07/04 11:29:17;;;;;;;4.53;0.75;;;;;;;15.19;62.58;101181.41;5049541;28;20055;-81
2022/07/04 11:31:49;;;;;;;5.20;0.82;;;;;;;15.07;62.47;101180.81;5043599;28;20031;-81
2022/07/04 11:34:16;;;;;;;2.53;0.57;;;;;;;14.98;62.75;101180.78;5053997;28;20036;-81
2022/07/04 11:36:44;;;;;;;4.60;0.75;;;;;;;14.93;62.60;101179.56;5065596;28;20129;-81
2022/07/04 11:39:12;;;;;;;3.80;0.80;;;;;;;14.91;62.69;101182.38;5062732;28;20040;-81